Time;durP1;ratioP1;P1;durP2;ratioP2;P2;SDS_P1;SDS_P2;PMS_P1;PMS_P2;Temp;Humidity;BMP_temperature;BMP_pressure;BME280_temperature;BME280_humidity;BME280_pressure;Samples;Min_cycle;Max_cycle;Signal;HPM_P1;HPM_P2
2023/07/25 00:00:40;;;;;;;10.85;2.75;;;;;;;17.09;72.36;100484.19;7396029;19;20019;-61
2023/07/25 00:03:07;;;;;;;9.63;2.60;;;;;;;16.98;72.97;100493.34;7394440;19;20015;-61
2023/07/25 00:05:35;;;;;;;9.05;2.70;;;;;;;16.93;73.16;100496.50;7393328;19;20014;-61
2023/07/25 00:08:03;;;;;;;10.20;3.00;;;;;;;16.97;72.98;100491.69;7395537;19;20043;-61
2023/07/25 00:10:33;;;;;;;8.95;2.97;;;;;;;17.11;72.44;100495.59;7393602;19;20026;-61
2023/07/25 00:13:00;;;;;;;10.55;2.97;;;;;;;17.01;72.69;100493.03;7394908;19;20015;-60
2023/07/25 00:15:28;;;;;;;8.38;2.60;;;;;;;17.02;72.77;100495.56;7394407;19;20022;-60
2023/07/25 00:17:56;;;;;;;8.40;2.90;;;;;;;16.96;73.10;100495.38;7395135;19;20019;-61
2023/07/25 00:20:24;;;;;;;9.05;2.75;;;;;;;16.89;73.27;100494.31;7395275;19;20018;-61
2023/07/25 00:22:51;;;;;;;7.55;2.20;;;;;;;16.94;73.23;100486.66;7393457;19;20483;-62
2023/07/25 00:25:19;;;;;;;8.07;2.70;;;;;;;16.93;73.24;100485.81;7392607;19;20018;-59
2023/07/25 00:27:46;;;;;;;9.57;2.70;;;;;;;16.88;73.03;100485.47;7394497;19;20130;-61
2023/07/25 00:30:13;;;;;;;8.98;2.70;;;;;;;16.83;73.61;100484.25;7394373;19;20022;-60
2023/07/25 00:32:41;;;;;;;6.70;2.47;;;;;;;16.66;74.12;100486.81;7392333;19;20019;-61
2023/07/25 00:35:08;;;;;;;9.02;2.90;;;;;;;16.68;74.13;100494.72;7394560;19;20090;-61
2023/07/25 00:37:36;;;;;;;9.70;2.63;;;;;;;16.72;73.91;100498.75;7394190;19;20072;-61
2023/07/25 00:40:03;;;;;;;6.05;2.75;;;;;;;16.69;73.87;100499.88;7393003;19;20015;-61
2023/07/25 00:42:31;;;;;;;8.68;3.15;;;;;;;16.68;74.07;100500.06;7393342;19;20019;-61
2023/07/25 00:44:58;;;;;;;7.20;2.40;;;;;;;16.64;73.97;100496.88;7393679;19;20015;-61
2023/07/25 00:47:25;;;;;;;7.03;2.63;;;;;;;16.61;74.08;100499.84;7394768;19;20046;-61
2023/07/25 00:49:54;;;;;;;7.78;2.78;;;;;;;16.58;74.52;100500.16;7394289;19;20022;-61
2023/07/25 00:52:21;;;;;;;10.18;2.90;;;;;;;16.60;73.99;100500.84;7394050;19;20018;-61
2023/07/25 00:54:50;;;;;;;10.82;3.15;;;;;;;16.54;74.56;100494.28;7392846;19;20031;-60
2023/07/25 00:57:19;;;;;;;9.80;2.75;;;;;;;16.56;74.08;100503.00;7394082;19;20015;-61
2023/07/25 00:59:46;;;;;;;9.18;2.63;;;;;;;16.46;74.79;100504.09;7393768;19;20029;-61
2023/07/25 01:02:15;;;;;;;9.55;3.05;;;;;;;16.44;74.69;100501.56;7393192;19;20018;-61
2023/07/25 01:04:43;;;;;;;8.88;2.92;;;;;;;16.39;74.83;100497.69;7393001;19;20011;-59
2023/07/25 01:07:12;;;;;;;7.57;2.95;;;;;;;16.44;74.86;100503.41;7391964;19;20036;-59
2023/07/25 01:09:44;;;;;;;7.70;2.60;;;;;;;16.48;74.77;100505.63;7393259;19;20022;-60
2023/07/25 01:12:12;;;;;;;6.05;2.50;;;;;;;16.52;74.33;100504.31;7392978;19;20073;-60
2023/07/25 01:14:40;;;;;;;10.60;3.00;;;;;;;16.50;74.45;100503.63;7393493;19;20014;-60
2023/07/25 01:17:15;;;;;;;9.07;2.60;;;;;;;16.52;74.17;100508.78;7393515;19;20028;-60
2023/07/25 01:19:44;;;;;;;7.93;2.60;;;;;;;16.46;74.27;100502.25;7393604;19;20028;-61
2023/07/25 01:22:12;;;;;;;8.80;3.10;;;;;;;16.40;74.21;100510.91;7393100;19;20417;-61
2023/07/25 01:24:45;;;;;;;7.47;3.05;;;;;;;16.40;74.16;100510.06;7391052;19;20547;-61
2023/07/25 01:27:14;;;;;;;8.50;3.08;;;;;;;16.38;74.18;100507.56;7391988;19;20052;-62
2023/07/25 01:29:41;;;;;;;8.27;2.90;;;;;;;16.33;74.31;100513.38;7392451;19;20088;-61
2023/07/25 01:32:09;;;;;;;8.50;2.90;;;;;;;16.28;74.42;100514.81;7391364;19;20021;-61
2023/07/25 01:34:37;;;;;;;8.13;2.80;;;;;;;16.28;74.68;100521.00;7395720;19;20082;-61
2023/07/25 01:37:06;;;;;;;9.48;3.30;;;;;;;16.28;74.42;100520.16;7392869;19;20018;-61
2023/07/25 01:39:33;;;;;;;12.63;3.22;;;;;;;16.25;74.57;100517.81;7392714;19;20046;-61
2023/07/25 01:42:01;;;;;;;9.02;2.97;;;;;;;16.36;73.98;100519.38;7391390;19;20186;-62
2023/07/25 01:44:28;;;;;;;8.68;2.95;;;;;;;16.29;74.40;100529.84;7390431;19;20057;-61
2023/07/25 01:46:59;;;;;;;7.85;2.85;;;;;;;16.31;74.17;100534.06;7392292;19;20011;-61
2023/07/25 01:49:26;;;;;;;12.20;2.70;;;;;;;16.25;74.28;100532.00;7392449;19;20015;-61
2023/07/25 01:51:53;;;;;;;10.02;3.30;;;;;;;16.19;74.45;100527.28;7390536;19;20018;-60
2023/07/25 01:54:21;;;;;;;8.63;3.15;;;;;;;16.16;74.82;100532.09;7390485;19;20355;-60
2023/07/25 01:56:48;;;;;;;10.30;3.42;;;;;;;16.25;74.10;100537.34;7389701;19;20090;-60
2023/07/25 01:59:18;;;;;;;12.38;3.75;;;;;;;16.37;73.75;100537.09;7392226;19;20022;-61
2023/07/25 02:01:45;;;;;;;13.45;3.90;;;;;;;16.39;73.56;100540.47;7392147;19;20098;-61
2023/07/25 02:04:13;;;;;;;9.93;3.15;;;;;;;16.29;73.83;100538.75;7390857;19;20010;-60
2023/07/25 02:06:40;;;;;;;12.25;3.67;;;;;;;16.23;73.77;100536.69;7391120;19;20021;-60
2023/07/25 02:09:07;;;;;;;12.73;3.40;;;;;;;16.17;74.16;100542.63;7391124;19;20018;-60
2023/07/25 02:11:35;;;;;;;8.10;3.03;;;;;;;16.30;73.65;100529.72;7390436;19;20039;-60
2023/07/25 02:14:02;;;;;;;8.02;3.13;;;;;;;16.31;73.54;100534.06;7389516;19;20022;-60
2023/07/25 02:16:29;;;;;;;8.70;2.70;;;;;;;16.28;73.43;100542.38;7390825;19;20026;-60
2023/07/25 02:18:57;;;;;;;11.55;3.58;;;;;;;16.26;73.70;100531.03;7391074;19;20027;-59
2023/07/25 02:21:24;;;;;;;11.40;3.33;;;;;;;16.22;73.80;100535.00;7391411;19;20364;-60
2023/07/25 02:23:51;;;;;;;10.52;3.20;;;;;;;16.27;73.65;100529.19;7389241;19;20039;-60
2023/07/25 02:26:18;;;;;;;9.30;2.90;;;;;;;16.24;73.80;100532.16;7390688;19;20111;-60
2023/07/25 02:28:46;;;;;;;8.60;2.80;;;;;;;16.20;73.76;100536.13;7390753;19;20030;-60
2023/07/25 02:31:13;;;;;;;6.60;3.00;;;;;;;16.19;73.61;100529.97;7390834;19;20081;-60
2023/07/25 02:33:40;;;;;;;11.25;3.33;;;;;;;16.18;73.64;100524.75;7390035;19;20085;-60
2023/07/25 02:36:08;;;;;;;13.27;3.55;;;;;;;16.25;73.52;100532.00;7390104;19;20035;-60
2023/07/25 02:38:36;;;;;;;10.23;3.00;;;;;;;16.22;73.56;100535.00;7390532;19;20137;-60
2023/07/25 02:41:04;;;;;;;9.13;2.88;;;;;;;16.21;73.25;100540.47;7391486;19;20021;-61
2023/07/25 02:43:32;;;;;;;9.38;3.00;;;;;;;16.18;73.22;100532.78;7389233;19;20019;-61
2023/07/25 02:45:59;;;;;;;8.95;2.80;;;;;;;16.22;72.79;100520.81;7389207;19;20022;-61
2023/07/25 02:48:30;;;;;;;10.80;3.45;;;;;;;16.08;73.42;100533.72;7389238;19;20082;-61
2023/07/25 02:50:57;;;;;;;12.18;3.35;;;;;;;16.05;73.58;100535.84;7390312;19;20074;-60
2023/07/25 02:53:24;;;;;;;9.65;2.90;;;;;;;16.01;73.35;100529.97;7388892;19;20471;-60
2023/07/25 02:55:54;;;;;;;11.20;3.30;;;;;;;16.03;73.15;100522.66;7387396;19;20376;-61
2023/07/25 02:58:21;;;;;;;9.77;3.17;;;;;;;16.02;73.16;100526.31;7388870;19;20011;-61
2023/07/25 03:00:48;;;;;;;7.05;2.88;;;;;;;15.88;73.19;100510.00;7388911;19;20094;-61
2023/07/25 03:03:16;;;;;;;9.13;3.22;;;;;;;15.92;73.16;100522.06;7388057;19;20015;-59
2023/07/25 03:05:43;;;;;;;11.27;3.13;;;;;;;15.83;73.43;100522.00;7389510;19;20039;-59
2023/07/25 03:08:10;;;;;;;8.60;2.92;;;;;;;15.80;73.57;100524.97;7390029;19;20022;-61
2023/07/25 03:10:38;;;;;;;10.05;3.20;;;;;;;15.83;73.76;100529.13;7388227;19;20028;-61
2023/07/25 03:13:05;;;;;;;8.80;2.78;;;;;;;15.89;73.39;100525.88;7387990;19;20019;-59
2023/07/25 03:15:33;;;;;;;10.10;3.05;;;;;;;15.95;73.19;100530.59;7388988;19;20015;-60
2023/07/25 03:18:00;;;;;;;9.05;3.33;;;;;;;15.97;72.89;100531.28;7390456;19;20022;-60
2023/07/25 03:20:27;;;;;;;11.25;3.08;;;;;;;15.91;72.87;100529.25;7388215;19;20011;-59
2023/07/25 03:22:55;;;;;;;9.00;3.42;;;;;;;15.82;73.43;100536.31;7388419;19;20039;-59
2023/07/25 03:25:22;;;;;;;10.35;3.28;;;;;;;15.79;73.24;100527.75;7388277;19;20046;-60
2023/07/25 03:27:51;;;;;;;7.13;3.00;;;;;;;15.81;73.19;100533.81;7390052;19;20534;-60
2023/07/25 03:30:18;;;;;;;9.80;2.80;;;;;;;15.83;72.78;100537.16;7388101;19;20031;-59
2023/07/25 03:32:46;;;;;;;8.60;3.13;;;;;;;15.73;73.06;100521.22;7389689;19;20025;-60
2023/07/25 03:35:13;;;;;;;11.05;3.40;;;;;;;15.71;73.14;100520.50;7386835;19;20023;-62
2023/07/25 03:37:41;;;;;;;9.07;3.28;;;;;;;15.69;73.43;100522.50;7389330;19;20025;-62
2023/07/25 03:40:08;;;;;;;8.00;3.13;;;;;;;15.79;72.83;100514.41;7385524;19;20471;-61
2023/07/25 03:42:35;;;;;;;10.65;3.35;;;;;;;15.74;72.96;100522.06;7388945;19;20074;-59
2023/07/25 03:45:03;;;;;;;10.15;3.10;;;;;;;15.74;72.80;100519.38;7384718;19;20708;-60
2023/07/25 03:47:30;;;;;;;9.88;3.20;;;;;;;15.72;72.85;100516.00;7388927;19;20026;-61
2023/07/25 03:49:58;;;;;;;10.48;3.30;;;;;;;15.76;72.53;100525.44;7388062;19;20022;-61
2023/07/25 03:52:27;;;;;;;8.93;2.90;;;;;;;15.72;72.65;100524.03;7388320;19;20019;-61
2023/07/25 03:54:54;;;;;;;11.70;3.42;;;;;;;15.62;73.13;100513.41;7388262;19;20496;-62
2023/07/25 03:57:21;;;;;;;10.25;3.35;;;;;;;15.60;73.06;100515.38;7388507;19;20422;-61
2023/07/25 03:59:49;;;;;;;12.02;3.13;;;;;;;15.62;72.96;100517.91;7391845;19;20021;-61
2023/07/25 04:02:16;;;;;;;9.13;3.30;;;;;;;15.53;73.20;100516.97;7396210;19;20025;-62
2023/07/25 04:04:43;;;;;;;9.85;3.50;;;;;;;15.60;73.00;100518.88;7393704;19;20017;-60
2023/07/25 04:07:11;;;;;;;8.35;2.80;;;;;;;15.55;73.03;100526.50;7395344;19;20015;-59
2023/07/25 04:09:38;;;;;;;15.05;3.42;;;;;;;15.63;72.79;100522.25;7394598;19;20046;-58
2023/07/25 04:12:06;;;;;;;14.10;3.97;;;;;;;15.68;72.61;100518.19;7395903;19;20022;-60
2023/07/25 04:14:33;;;;;;;9.93;3.17;;;;;;;15.61;72.94;100522.41;7395001;19;20089;-61
2023/07/25 04:17:01;;;;;;;8.68;3.30;;;;;;;15.64;72.64;100514.06;7394063;19;20032;-59
2023/07/25 04:19:28;;;;;;;11.63;3.53;;;;;;;15.56;72.77;100522.00;7394295;19;20016;-59
2023/07/25 04:21:55;;;;;;;10.43;2.90;;;;;;;15.54;72.75;100519.50;7395336;19;20039;-58
2023/07/25 04:24:23;;;;;;;11.55;3.25;;;;;;;15.48;72.83;100505.91;7393860;19;20039;-61
2023/07/25 04:26:50;;;;;;;10.32;3.50;;;;;;;15.47;73.03;100504.25;7392134;19;20055;-60
2023/07/25 04:29:17;;;;;;;10.20;2.78;;;;;;;15.56;72.66;100509.50;7391180;19;20018;-61
2023/07/25 04:31:45;;;;;;;9.40;2.70;;;;;;;15.56;72.22;100509.50;7391765;19;20388;-60
2023/07/25 04:34:13;;;;;;;12.18;3.50;;;;;;;15.46;72.92;100514.06;7397532;19;20102;-60
2023/07/25 04:36:40;;;;;;;10.23;2.92;;;;;;;15.58;72.39;100515.53;7393814;19;20033;-60
2023/07/25 04:39:08;;;;;;;12.13;3.65;;;;;;;15.63;71.92;100514.22;7393338;19;20099;-61
2023/07/25 04:41:35;;;;;;;9.77;3.10;;;;;;;15.60;72.28;100515.38;7394524;19;20035;-61
2023/07/25 04:44:02;;;;;;;9.90;3.03;;;;;;;15.60;72.37;100520.72;7393885;19;20031;-62
2023/07/25 04:46:30;;;;;;;11.93;2.92;;;;;;;15.56;72.40;100519.34;7393869;19;20025;-61
2023/07/25 04:48:58;;;;;;;13.88;3.80;;;;;;;15.55;72.66;100517.66;7394571;19;20022;-62
2023/07/25 04:51:25;;;;;;;9.55;3.33;;;;;;;15.46;72.70;100515.91;7393731;19;20022;-62
2023/07/25 04:53:52;;;;;;;9.13;2.72;;;;;;;15.48;72.77;100519.25;7394198;19;20025;-61
2023/07/25 04:56:19;;;;;;;11.10;3.20;;;;;;;15.62;72.22;100534.75;7393296;19;20070;-62
2023/07/25 04:58:47;;;;;;;11.20;3.40;;;;;;;15.57;72.37;100529.03;7393726;19;20014;-63
2023/07/25 05:01:14;;;;;;;11.48;3.10;;;;;;;15.57;72.25;100539.72;7393965;19;20019;-63
2023/07/25 05:03:41;;;;;;;8.85;2.78;;;;;;;15.57;72.28;100534.38;7394157;19;20034;-64
2023/07/25 05:06:11;;;;;;;11.50;2.80;;;;;;;15.62;71.91;100537.44;7391713;19;20023;-63
2023/07/25 05:08:38;;;;;;;9.45;2.72;;;;;;;15.69;71.72;100543.88;7394315;19;20019;-63
2023/07/25 05:11:06;;;;;;;7.45;2.83;;;;;;;15.73;71.54;100536.41;7390694;19;20019;-63
2023/07/25 05:13:33;;;;;;;8.43;2.58;;;;;;;15.67;71.93;100537.84;7393541;19;20014;-64
2023/07/25 05:16:00;;;;;;;8.35;2.88;;;;;;;15.67;72.14;100543.16;7392714;19;20031;-63
2023/07/25 05:18:28;;;;;;;9.80;2.80;;;;;;;15.69;71.68;100538.53;7391948;19;20010;-64
2023/07/25 05:20:55;;;;;;;8.10;2.78;;;;;;;15.73;71.72;100545.25;7390857;19;20484;-63
2023/07/25 05:23:23;;;;;;;11.10;3.10;;;;;;;15.77;71.44;100543.13;7392893;19;20018;-63
2023/07/25 05:25:50;;;;;;;10.90;3.17;;;;;;;15.86;71.29;100546.69;7390436;19;20022;-64
2023/07/25 05:28:18;;;;;;;10.65;2.60;;;;;;;15.93;71.24;100555.78;7393280;19;20123;-64
2023/07/25 05:30:46;;;;;;;7.32;2.70;;;;;;;15.95;71.25;100551.97;7391147;19;20039;-64
2023/07/25 05:33:13;;;;;;;9.98;2.85;;;;;;;16.01;71.14;100555.84;7393584;19;20010;-63
2023/07/25 05:35:41;;;;;;;8.30;2.75;;;;;;;16.01;70.98;100558.53;7391762;19;20014;-64
2023/07/25 05:38:08;;;;;;;10.98;2.90;;;;;;;16.11;70.90;100563.81;7392476;19;20029;-64
2023/07/25 05:40:35;;;;;;;9.15;2.70;;;;;;;16.14;70.99;100559.00;7390933;19;20018;-64
2023/07/25 05:43:03;;;;;;;14.73;3.67;;;;;;;16.11;71.02;100553.94;7393173;19;20036;-64
2023/07/25 05:45:30;;;;;;;10.80;3.40;;;;;;;16.13;70.78;100554.63;7390138;19;20069;-64
2023/07/25 05:47:58;;;;;;;11.00;3.10;;;;;;;16.19;70.68;100559.34;7392062;19;20020;-62
2023/07/25 05:50:25;;;;;;;14.20;3.15;;;;;;;16.19;70.76;100559.34;7390923;19;20015;-62
2023/07/25 05:52:52;;;;;;;12.80;2.90;;;;;;;16.14;70.54;100560.78;7392348;19;20018;-65
2023/07/25 05:55:19;;;;;;;10.02;2.90;;;;;;;16.22;70.82;100553.72;7392020;19;20014;-64
2023/07/25 05:57:47;;;;;;;12.85;3.10;;;;;;;16.32;70.50;100562.47;7391661;19;20018;-64
2023/07/25 06:00:14;;;;;;;10.02;3.20;;;;;;;16.31;70.80;100559.94;7389475;19;20022;-64
2023/07/25 06:02:42;;;;;;;9.13;2.95;;;;;;;16.37;70.72;100559.34;7392091;19;20018;-64
2023/07/25 06:05:09;;;;;;;9.70;3.05;;;;;;;16.39;70.52;100557.34;7390023;19;20476;-64
2023/07/25 06:07:36;;;;;;;11.48;3.50;;;;;;;16.41;70.30;100563.38;7391337;19;20027;-62
2023/07/25 06:10:04;;;;;;;12.30;3.25;;;;;;;16.42;70.32;100556.19;7390420;19;20046;-64
2023/07/25 06:12:32;;;;;;;9.55;3.40;;;;;;;16.42;70.46;100549.00;7389643;19;20015;-63
2023/07/25 06:14:59;;;;;;;10.35;3.42;;;;;;;16.43;70.65;100545.34;7391401;19;20015;-63
2023/07/25 06:17:27;;;;;;;11.40;3.53;;;;;;;16.44;70.70;100543.50;7391036;19;20050;-64
2023/07/25 06:19:55;;;;;;;11.43;2.92;;;;;;;16.53;70.42;100542.56;7390790;19;20047;-63
2023/07/25 06:22:22;;;;;;;10.57;3.20;;;;;;;16.68;70.02;100550.88;7389652;19;20014;-63
2023/07/25 06:24:49;;;;;;;6.82;2.78;;;;;;;16.73;69.33;100549.41;7389997;19;20043;-63
2023/07/25 06:27:17;;;;;;;10.80;3.08;;;;;;;16.72;69.62;100542.38;7391086;19;20024;-63
2023/07/25 06:29:44;;;;;;;11.35;3.08;;;;;;;16.83;69.33;100551.13;7390418;19;20429;-63
2023/07/25 06:32:11;;;;;;;8.57;2.72;;;;;;;16.86;69.27;100545.47;7391547;19;20011;-63
2023/07/25 06:34:39;;;;;;;7.55;3.03;;;;;;;16.86;69.54;100542.78;7393481;19;20011;-63
2023/07/25 06:37:06;;;;;;;12.35;3.20;;;;;;;16.89;69.41;100537.97;7389242;19;20390;-63
2023/07/25 06:39:34;;;;;;;13.55;3.40;;;;;;;17.02;69.24;100543.72;7390056;19;20027;-63
2023/07/25 06:42:01;;;;;;;10.68;4.00;;;;;;;17.14;68.37;100532.75;7390912;19;20015;-62
2023/07/25 06:44:28;;;;;;;8.60;3.67;;;;;;;17.24;68.42;100544.97;7390474;19;20019;-62
2023/07/25 06:46:56;;;;;;;12.38;3.50;;;;;;;17.25;68.31;100546.66;7390361;19;20078;-61
2023/07/25 06:49:23;;;;;;;9.40;3.47;;;;;;;17.17;68.68;100545.78;7389906;19;20022;-62
2023/07/25 06:51:51;;;;;;;12.70;3.40;;;;;;;17.22;69.13;100551.50;7390426;19;20438;-61
2023/07/25 06:54:18;;;;;;;13.05;3.60;;;;;;;17.32;68.99;100562.06;7390650;19;20018;-61
2023/07/25 06:56:45;;;;;;;8.77;3.33;;;;;;;17.22;69.00;100560.38;7388202;19;20026;-61
2023/07/25 06:59:13;;;;;;;14.00;4.00;;;;;;;17.20;68.91;100561.50;7389584;19;20486;-62
2023/07/25 07:01:40;;;;;;;11.75;3.83;;;;;;;17.18;68.52;100568.88;7388982;19;20084;-64
2023/07/25 07:04:07;;;;;;;10.80;3.25;;;;;;;17.27;68.21;100568.75;7390109;19;20357;-63
2023/07/25 07:06:35;;;;;;;12.63;3.95;;;;;;;17.48;67.51;100575.53;7386333;19;20035;-62
2023/07/25 07:09:03;;;;;;;11.90;3.20;;;;;;;17.45;67.54;100576.69;7389738;19;20028;-63
2023/07/25 07:11:30;;;;;;;11.05;3.58;;;;;;;17.44;67.76;100576.84;7388741;19;20018;-62
2023/07/25 07:13:58;;;;;;;11.73;3.33;;;;;;;17.42;68.07;100587.72;7389970;19;20023;-62
2023/07/25 07:16:25;;;;;;;13.30;3.25;;;;;;;17.30;68.34;100584.47;7388450;19;20019;-63
2023/07/25 07:18:52;;;;;;;10.18;3.60;;;;;;;17.24;68.60;100590.47;7389325;19;20015;-61
2023/07/25 07:21:20;;;;;;;10.88;3.60;;;;;;;17.33;68.48;100598.56;7389569;19;20018;-61
2023/07/25 07:23:47;;;;;;;16.15;3.45;;;;;;;17.30;68.17;100605.91;7389566;19;20024;-62
2023/07/25 07:26:18;;;;;;;9.63;3.45;;;;;;;17.33;68.31;100612.78;7387436;19;20018;-62
2023/07/25 07:28:45;;;;;;;10.77;3.92;;;;;;;17.33;68.13;100610.09;7388986;19;20043;-62
2023/07/25 07:31:13;;;;;;;14.43;3.90;;;;;;;17.19;68.46;100614.22;7389136;19;20019;-62
2023/07/25 07:33:40;;;;;;;8.18;2.85;;;;;;;17.12;68.76;100618.50;7394341;19;20480;-63
2023/07/25 07:36:07;;;;;;;9.88;3.53;;;;;;;17.10;68.77;100620.53;7395967;19;20011;-64
2023/07/25 07:38:35;;;;;;;11.20;3.65;;;;;;;17.05;68.82;100630.84;7396655;19;20018;-64
2023/07/25 07:41:02;;;;;;;10.52;3.10;;;;;;;17.02;68.60;100623.16;7394006;19;20535;-62
2023/07/25 07:43:29;;;;;;;9.30;2.70;;;;;;;17.00;68.97;100642.03;7396649;19;20018;-63
2023/07/25 07:45:57;;;;;;;10.18;2.95;;;;;;;17.07;68.85;100641.41;7394387;19;20106;-64
2023/07/25 07:48:24;;;;;;;11.77;2.97;;;;;;;17.07;68.68;100644.91;7396093;19;20022;-63
2023/07/25 07:50:52;;;;;;;8.65;2.42;;;;;;;17.07;68.85;100630.69;7393870;19;20018;-64
2023/07/25 07:53:19;;;;;;;8.60;2.55;;;;;;;16.92;69.33;100641.97;7395951;19;20010;-62
2023/07/25 07:55:46;;;;;;;7.60;2.65;;;;;;;16.91;69.60;100642.16;7395131;19;20480;-63
2023/07/25 07:58:14;;;;;;;9.02;2.10;;;;;;;16.89;70.07;100647.63;7396313;19;20022;-63
2023/07/25 08:00:41;;;;;;;7.45;1.70;;;;;;;16.95;69.64;100651.53;7393882;19;20022;-63
2023/07/25 08:03:09;;;;;;;6.15;1.50;;;;;;;16.93;69.14;100656.19;7394218;19;20019;-63
2023/07/25 08:05:36;;;;;;;6.65;1.33;;;;;;;16.94;69.08;100655.19;7393653;19;20019;-63
2023/07/25 08:08:04;;;;;;;5.13;1.70;;;;;;;16.93;68.89;100658.88;7396107;19;20006;-63
2023/07/25 08:10:31;;;;;;;4.68;1.40;;;;;;;16.90;67.94;100649.31;7393868;19;20018;-63
2023/07/25 08:12:58;;;;;;;3.33;1.13;;;;;;;16.98;66.83;100661.91;7395372;19;20034;-63
2023/07/25 08:15:26;;;;;;;4.18;1.17;;;;;;;16.94;66.19;100656.03;7394524;19;20082;-63
2023/07/25 08:17:53;;;;;;;2.08;0.88;;;;;;;17.03;66.02;100655.09;7395889;19;20025;-63
2023/07/25 08:20:20;;;;;;;4.38;1.35;;;;;;;17.09;65.74;100639.41;7394112;19;20055;-63
2023/07/25 08:22:48;;;;;;;4.32;1.20;;;;;;;17.19;65.00;100648.16;7395225;19;20026;-63
2023/07/25 08:25:15;;;;;;;3.35;1.00;;;;;;;17.29;64.25;100640.88;7394230;19;20086;-64
2023/07/25 08:27:43;;;;;;;4.18;1.10;;;;;;;17.38;64.14;100634.53;7394686;19;20499;-64
2023/07/25 08:30:10;;;;;;;3.72;1.05;;;;;;;17.50;63.93;100638.59;7393872;19;20035;-62
2023/07/25 08:32:38;;;;;;;4.47;1.20;;;;;;;17.48;63.90;100639.78;7393473;19;20487;-62
2023/07/25 08:35:05;;;;;;;4.70;1.20;;;;;;;17.45;63.92;100624.03;7394389;19;20078;-62
2023/07/25 08:37:32;;;;;;;3.17;1.00;;;;;;;17.42;64.13;100629.72;7395064;19;20019;-63
2023/07/25 08:40:00;;;;;;;3.17;0.90;;;;;;;17.48;63.78;100627.22;7393483;19;20022;-63
2023/07/25 08:42:32;;;;;;;3.28;0.88;;;;;;;17.58;63.43;100635.13;7394529;19;20495;-63
2023/07/25 08:45:00;;;;;;;3.50;1.02;;;;;;;17.54;63.29;100637.28;7390212;19;20018;-65
2023/07/25 08:47:30;;;;;;;3.58;1.00;;;;;;;17.57;62.84;100636.13;7394075;19;20085;-64
2023/07/25 08:49:59;;;;;;;4.18;1.20;;;;;;;17.69;62.46;100634.00;7391275;19;20019;-61
2023/07/25 08:52:28;;;;;;;3.47;1.15;;;;;;;17.88;61.55;100624.88;7394060;19;20043;-60
2023/07/25 08:54:56;;;;;;;4.10;1.13;;;;;;;17.97;60.71;100631.91;7393276;19;20031;-61
2023/07/25 08:57:26;;;;;;;7.22;1.30;;;;;;;18.05;59.70;100631.97;7393857;19;20022;-60
2023/07/25 08:59:54;;;;;;;3.13;1.08;;;;;;;18.09;58.84;100617.22;7392281;19;20022;-65
2023/07/25 09:02:22;;;;;;;3.40;1.10;;;;;;;18.32;57.55;100627.31;7394301;19;20090;-66
2023/07/25 09:04:50;;;;;;;6.13;1.30;;;;;;;18.42;57.35;100634.16;7393168;19;20026;-63
2023/07/25 09:07:18;;;;;;;6.63;1.50;;;;;;;18.42;57.09;100625.28;7394386;19;20027;-62
2023/07/25 09:09:46;;;;;;;5.18;1.20;;;;;;;18.41;57.15;100637.84;7393101;19;20023;-62
2023/07/25 09:12:13;;;;;;;6.95;1.70;;;;;;;18.52;57.25;100626.78;7394062;19;20507;-63
2023/07/25 09:14:43;;;;;;;7.78;1.70;;;;;;;18.58;56.69;100627.94;7393092;19;20058;-63
2023/07/25 09:17:10;;;;;;;5.35;1.52;;;;;;;18.69;56.86;100627.59;7392613;19;20019;-63
2023/07/25 09:19:38;;;;;;;8.48;1.80;;;;;;;18.81;56.78;100627.31;7393527;19;20025;-60
2023/07/25 09:22:25;;;;;;;9.00;1.95;;;;;;;19.01;56.59;100625.09;7394052;19;20093;-59
2023/07/25 09:24:53;;;;;;;9.07;2.97;;;;;;;19.12;56.19;100620.22;7393046;19;20376;-60
2023/07/25 09:27:21;;;;;;;8.25;2.80;;;;;;;19.21;56.47;100621.03;7391150;19;20018;-60
2023/07/25 09:29:50;;;;;;;8.85;2.20;;;;;;;19.32;56.12;100617.13;7392959;19;20021;-58
2023/07/25 09:32:27;;;;;;;8.55;2.35;;;;;;;19.36;55.46;100623.81;7392983;19;20086;-60
2023/07/25 09:34:59;;;;;;;9.93;2.25;;;;;;;19.35;55.30;100625.69;7396516;19;20022;-59
2023/07/25 09:37:30;;;;;;;11.45;2.47;;;;;;;19.39;55.75;100626.16;7393359;19;20093;-59
2023/07/25 09:39:58;;;;;;;10.13;2.65;;;;;;;19.34;56.29;100625.84;7392365;19;20023;-59
2023/07/25 09:42:25;;;;;;;7.78;2.58;;;;;;;19.31;56.05;100624.34;7392868;19;20090;-60
2023/07/25 09:44:53;;;;;;;9.30;2.20;;;;;;;19.37;56.75;100629.00;7392631;19;20018;-59
2023/07/25 09:47:25;;;;;;;9.43;2.20;;;;;;;19.47;56.43;100628.81;7390267;19;20035;-59
2023/07/25 09:49:55;;;;;;;7.80;2.00;;;;;;;19.34;56.95;100633.88;7391974;19;20025;-59
2023/07/25 09:52:22;;;;;;;6.88;1.65;;;;;;;19.21;57.31;100631.75;7392975;19;20033;-59
2023/07/25 09:54:50;;;;;;;8.40;1.65;;;;;;;19.18;57.41;100629.41;7391701;19;20029;-60
2023/07/25 09:57:18;;;;;;;8.60;1.58;;;;;;;19.05;57.82;100623.75;7390797;19;20064;-60
2023/07/25 09:59:49;;;;;;;6.03;1.60;;;;;;;18.94;58.34;100625.78;7391452;19;20468;-60
2023/07/25 10:02:17;;;;;;;7.95;1.58;;;;;;;18.79;58.68;100621.28;7390966;19;20021;-59
2023/07/25 10:04:45;;;;;;;7.45;1.60;;;;;;;18.80;58.81;100614.91;7390941;19;20507;-59
2023/07/25 10:07:14;;;;;;;7.93;2.00;;;;;;;18.84;58.52;100624.28;7390267;19;20082;-59
2023/07/25 10:09:44;;;;;;;6.85;1.73;;;;;;;18.80;58.22;100620.25;7391577;19;20486;-59
2023/07/25 10:12:12;;;;;;;7.35;1.70;;;;;;;18.87;57.37;100621.25;7392040;19;20101;-59
2023/07/25 10:14:39;;;;;;;7.35;1.80;;;;;;;18.91;57.27;100610.00;7390862;19;20333;-60
2023/07/25 10:17:07;;;;;;;7.20;1.35;;;;;;;19.11;57.48;100618.50;7392034;19;20032;-60
2023/07/25 10:19:53;;;;;;;7.43;1.80;;;;;;;19.41;56.81;100622.28;7391094;19;20047;-60
2023/07/25 10:22:41;;;;;;;8.20;1.83;;;;;;;19.64;55.60;100617.00;7391846;19;20014;-60
2023/07/25 10:25:18;;;;;;;12.35;1.63;;;;;;;19.86;55.04;100619.91;7388441;19;20010;-60
2023/07/25 10:27:46;;;;;;;7.70;2.00;;;;;;;19.59;56.38;100623.91;7389918;19;20014;-59
2023/07/25 10:30:32;;;;;;;9.10;1.80;;;;;;;19.23;55.44;100632.41;7390146;19;20487;-59
2023/07/25 10:33:02;;;;;;;6.75;1.40;;;;;;;18.73;56.44;100634.38;7391581;19;20014;-62
2023/07/25 10:35:45;;;;;;;6.85;1.73;;;;;;;18.64;56.39;100637.19;7391689;19;20010;-62
2023/07/25 10:38:19;;;;;;;6.13;1.43;;;;;;;18.45;57.15;100643.72;7391020;19;20018;-61
2023/07/25 10:40:54;;;;;;;6.18;1.25;;;;;;;18.29;57.85;100638.34;7389435;19;20019;-61
2023/07/25 10:43:27;;;;;;;6.30;1.50;;;;;;;18.23;59.33;100634.47;7391119;19;20037;-59
2023/07/25 10:45:56;;;;;;;6.70;1.60;;;;;;;18.16;60.58;100649.53;7389744;19;20014;-59
2023/07/25 10:48:26;;;;;;;8.48;1.48;;;;;;;18.16;61.57;100642.38;7391037;19;20006;-60
2023/07/25 10:50:54;;;;;;;6.63;1.45;;;;;;;18.31;61.29;100642.53;7389750;19;20025;-61
2023/07/25 10:53:22;;;;;;;6.97;1.55;;;;;;;18.45;60.78;100641.03;7388862;19;20091;-60
2023/07/25 10:56:05;;;;;;;5.65;1.45;;;;;;;18.63;60.61;100647.09;7390002;19;20476;-61
2023/07/25 10:58:40;;;;;;;6.57;1.63;;;;;;;18.77;59.99;100640.22;7390609;19;20014;-60
2023/07/25 11:01:07;;;;;;;5.47;1.40;;;;;;;19.04;59.64;100646.22;7388429;19;20018;-59
2023/07/25 11:03:36;;;;;;;5.88;1.50;;;;;;;19.00;59.47;100640.34;7390245;19;20029;-61
2023/07/25 11:06:06;;;;;;;4.88;1.58;;;;;;;18.89;59.47;100636.19;7389326;19;20022;-61
2023/07/25 11:08:37;;;;;;;6.80;1.45;;;;;;;18.78;59.77;100635.72;7393201;19;20015;-61
2023/07/25 11:11:08;;;;;;;6.72;1.60;;;;;;;18.85;59.50;100639.38;7394933;19;20014;-61
2023/07/25 11:13:38;;;;;;;6.20;1.42;;;;;;;18.75;59.74;100624.28;7397980;19;20114;-60
2023/07/25 11:16:10;;;;;;;6.38;1.33;;;;;;;18.76;59.53;100638.53;7397336;19;20391;-61
2023/07/25 11:18:49;;;;;;;6.72;1.35;;;;;;;18.81;59.78;100627.31;7392576;19;20352;-61
2023/07/25 11:21:17;;;;;;;6.90;1.77;;;;;;;18.81;60.01;100617.44;7394510;19;20023;-61
2023/07/25 11:23:44;;;;;;;7.65;1.52;;;;;;;18.88;59.82;100607.66;7397509;19;20039;-61
2023/07/25 11:26:13;;;;;;;8.48;1.77;;;;;;;18.91;59.19;100607.31;7395217;19;20043;-61